createdAt,value
2022-07-30T02:10:38.693Z,17.77
2022-07-30T02:13:34.673Z,17.79
2022-07-30T02:34:36.687Z,17.70
2022-07-30T02:38:25.349Z,17.75
2022-07-30T02:41:16.686Z,17.70
2022-07-30T03:25:15.727Z,17.49
2022-07-30T03:28:40.748Z,17.46
2022-07-30T03:31:37.839Z,17.45
2022-07-30T03:34:29.699Z,17.42
2022-07-30T03:56:10.731Z,17.13
2022-07-30T04:18:21.716Z,17.13
2022-07-30T05:16:23.813Z,17.11
2022-07-30T06:38:27.843Z,17.51
2022-07-30T08:06:30.813Z,18.71
2022-07-30T08:54:45.568Z,19.24
2022-07-30T08:57:39.851Z,19.29
2022-07-30T09:00:45.300Z,19.27
2022-07-30T09:07:36.873Z,19.41
2022-07-30T09:28:19.885Z,19.88
2022-07-30T09:31:01.933Z,20.08
2022-07-30T09:33:53.876Z,20.12
2022-07-30T09:36:37.910Z,20.22
2022-07-30T09:39:38.930Z,20.42
2022-07-30T09:42:29.021Z,20.40
2022-07-30T09:48:23.038Z,20.54
2022-07-30T09:51:15.677Z,20.65
2022-07-30T09:53:59.351Z,20.69
2022-07-30T09:56:53.885Z,20.79
2022-07-30T09:59:43.937Z,20.87
2022-07-30T10:02:34.027Z,20.99
2022-07-30T10:05:16.563Z,21.05
2022-07-30T10:08:16.580Z,21.02
2022-07-30T10:11:08.637Z,20.98
2022-07-30T10:13:59.874Z,21.17
2022-07-30T10:16:40.671Z,21.23
2022-07-30T10:19:40.377Z,21.25
2022-07-30T10:22:22.365Z,21.25
2022-07-30T10:25:11.912Z,21.35
2022-07-30T10:27:57.689Z,21.47
2022-07-30T10:33:40.957Z,21.78
2022-07-30T10:36:31.921Z,21.89
2022-07-30T10:39:13.964Z,21.95
2022-07-30T10:42:27.920Z,21.96
2022-07-30T10:45:18.964Z,22.07
2022-07-30T10:48:09.911Z,22.18
2022-07-30T10:51:10.921Z,22.23
2022-07-30T10:54:14.921Z,22.44
2022-07-30T10:57:31.695Z,22.52
2022-07-30T11:00:15.548Z,22.65
2022-07-30T11:03:41.104Z,22.66
2022-07-30T11:10:04.286Z,22.95
2022-07-30T11:13:01.943Z,23.00
2022-07-30T11:16:14.905Z,23.10
2022-07-30T11:19:56.923Z,23.15
2022-07-30T11:22:38.883Z,23.38
2022-07-30T11:25:54.441Z,23.52
2022-07-30T11:29:01.925Z,23.54
2022-07-30T11:31:58.850Z,23.60
2022-07-30T11:34:48.938Z,23.61
2022-07-30T11:38:08.912Z,23.65
2022-07-30T11:41:18.937Z,23.59
2022-07-30T11:44:32.064Z,23.64
2022-07-30T11:47:21.947Z,23.70
2022-07-30T11:50:12.945Z,23.76
2022-07-30T11:52:54.306Z,23.79
2022-07-30T11:55:49.927Z,23.93
2022-07-30T11:58:43.954Z,23.82
2022-07-30T12:01:23.990Z,23.65
2022-07-30T12:04:15.962Z,23.45
2022-07-30T12:06:56.005Z,23.45
2022-07-30T12:09:45.960Z,23.09
2022-07-30T12:12:29.424Z,22.63
2022-07-30T12:15:19.944Z,22.44
2022-07-30T12:18:27.140Z,22.25
2022-07-30T12:21:13.989Z,22.02
2022-07-30T12:24:04.142Z,21.83
2022-07-30T12:26:53.945Z,21.88
2022-07-30T12:29:44.007Z,21.68
2022-07-30T12:32:33.969Z,21.63
2022-07-30T12:35:23.981Z,21.42
2022-07-30T12:38:21.970Z,21.25
2022-07-30T12:41:14.961Z,21.14
2022-07-30T12:43:57.042Z,20.91
2022-07-30T12:46:50.952Z,20.70
2022-07-30T12:49:50.251Z,20.53
2022-07-30T12:52:34.558Z,20.26
2022-07-30T12:55:26.985Z,20.19
2022-07-30T12:58:09.113Z,19.92
2022-07-30T13:01:07.011Z,19.78
2022-07-30T13:03:47.363Z,19.59
2022-07-30T13:06:37.979Z,19.45
2022-07-30T13:09:20.710Z,19.55
2022-07-30T13:12:37.987Z,19.49
2022-07-30T13:15:22.754Z,19.53
2022-07-30T13:18:11.983Z,19.55
2022-07-30T13:21:04.021Z,19.58
2022-07-30T13:23:56.022Z,19.64
2022-07-30T13:26:36.618Z,19.65
2022-07-30T13:29:28.999Z,19.96
2022-07-30T13:32:09.556Z,20.07
2022-07-30T13:35:01.543Z,20.30
2022-07-30T13:37:52.000Z,20.60
2022-07-30T13:40:32.180Z,20.79
2022-07-30T13:43:22.006Z,20.89
2022-07-30T13:46:03.200Z,20.96
2022-07-30T13:48:53.079Z,21.03
2022-07-30T13:51:42.994Z,20.99
2022-07-30T13:54:33.020Z,20.92
2022-07-30T13:57:23.023Z,20.94
2022-07-30T14:00:06.796Z,20.98
2022-07-30T14:02:57.030Z,20.97
2022-07-30T14:05:42.030Z,21.03
2022-07-30T14:08:32.026Z,20.97
2022-07-30T14:11:22.030Z,20.83
2022-07-30T14:14:02.093Z,20.89
2022-07-30T14:16:58.979Z,21.00
2022-07-30T14:19:39.077Z,20.93
2022-07-30T14:22:29.010Z,20.90
2022-07-30T14:25:19.006Z,20.86
2022-07-30T14:28:09.038Z,20.96
2022-07-30T14:30:59.014Z,20.89
2022-07-30T14:33:49.030Z,20.89
2022-07-30T14:36:30.156Z,20.92
2022-07-30T14:39:23.038Z,20.79
2022-07-30T14:42:03.095Z,20.83
2022-07-30T14:44:56.802Z,20.78
2022-07-30T14:47:47.032Z,20.64
2022-07-30T14:50:27.382Z,20.63
2022-07-30T14:53:21.862Z,20.51
2022-07-30T14:56:12.037Z,20.37
2022-07-30T14:58:53.097Z,20.21
2022-07-30T15:01:43.168Z,20.20
2022-07-30T15:04:25.404Z,20.11
2022-07-30T15:07:15.037Z,20.16
2022-07-30T15:10:05.030Z,20.21
2022-07-30T15:12:45.647Z,20.21
2022-07-30T15:15:38.378Z,20.38
2022-07-30T15:18:28.062Z,20.56
2022-07-30T15:21:09.149Z,20.74
2022-07-30T15:23:59.052Z,20.86
2022-07-30T15:26:39.322Z,20.96
2022-07-30T15:29:29.214Z,20.94
2022-07-30T15:32:09.128Z,20.98
2022-07-30T15:35:13.202Z,21.12
2022-07-30T15:38:03.076Z,21.25
2022-07-30T15:40:43.766Z,21.36
2022-07-30T15:43:33.046Z,21.35
2022-07-30T15:46:23.087Z,21.58
2022-07-30T15:49:03.179Z,21.63
2022-07-30T15:51:58.074Z,21.82
2022-07-30T15:54:48.140Z,21.92
2022-07-30T15:57:28.399Z,22.02
2022-07-30T16:00:18.081Z,22.09
2022-07-30T16:02:59.635Z,22.10
2022-07-30T16:05:51.155Z,22.18
2022-07-30T16:08:42.073Z,22.25
2022-07-30T16:11:22.226Z,22.16
2022-07-30T16:14:12.095Z,22.24
2022-07-30T16:16:55.240Z,22.16
2022-07-30T16:19:45.352Z,22.15
2022-07-30T16:22:35.066Z,22.13
2022-07-30T16:25:25.105Z,22.12
2022-07-30T16:28:15.096Z,22.11
2022-07-30T16:31:05.092Z,22.06
2022-07-30T16:33:45.198Z,22.06
2022-07-30T16:36:35.127Z,22.07
2022-07-30T16:39:22.158Z,21.93
2022-07-30T16:42:05.430Z,21.99
2022-07-30T16:44:45.492Z,21.91
2022-07-30T16:47:35.111Z,21.80
2022-07-30T16:50:16.037Z,21.69
2022-07-30T16:53:08.496Z,21.70
2022-07-30T16:55:50.453Z,21.65
2022-07-30T16:58:40.114Z,21.62
2022-07-30T17:01:20.473Z,21.55
2022-07-30T17:04:10.131Z,21.55
2022-07-30T17:06:51.636Z,21.63
2022-07-30T17:09:41.131Z,21.76
2022-07-30T17:12:25.272Z,21.64
2022-07-30T17:15:15.148Z,21.69
2022-07-30T17:18:05.130Z,21.54
2022-07-30T17:20:45.208Z,21.49
2022-07-30T17:23:35.138Z,21.40
2022-07-30T17:26:15.510Z,21.60
2022-07-30T17:29:05.140Z,21.46
2022-07-30T17:31:59.238Z,21.43
2022-07-30T17:34:41.485Z,21.30
2022-07-30T17:37:31.120Z,21.22
2022-07-30T17:40:28.495Z,21.15
2022-07-30T17:43:13.886Z,21.08
2022-07-30T17:46:04.120Z,20.94
2022-07-30T17:48:44.241Z,20.97
2022-07-30T17:51:34.139Z,21.00
2022-07-30T17:54:14.242Z,20.88
2022-07-30T17:57:04.150Z,20.78
2022-07-30T17:59:54.119Z,20.71
2022-07-30T18:02:45.164Z,20.79
2022-07-30T18:05:25.192Z,20.57
2022-07-30T18:08:15.148Z,20.65
2022-07-30T18:11:05.135Z,20.67
2022-07-30T18:13:48.524Z,20.54
2022-07-30T18:16:38.156Z,20.28
2022-07-30T18:19:22.650Z,20.14
2022-07-30T18:22:17.151Z,20.41
2022-07-30T18:25:18.968Z,20.37
2022-07-30T18:28:09.149Z,20.19
2022-07-30T18:30:52.025Z,20.12
2022-07-30T18:33:42.157Z,20.23
2022-07-30T18:36:22.513Z,20.06
2022-07-30T18:39:12.141Z,19.99
2022-07-30T18:41:52.686Z,20.03
2022-07-30T18:44:42.148Z,19.93
2022-07-30T18:47:22.470Z,19.86
2022-07-30T18:50:12.230Z,19.83
2022-07-30T18:52:52.578Z,19.74
2022-07-30T18:55:42.173Z,19.73
2022-07-30T18:58:25.630Z,19.64
2022-07-30T19:01:15.207Z,19.79
2022-07-30T19:03:55.680Z,19.61
2022-07-30T19:06:47.180Z,19.62
2022-07-30T19:09:27.641Z,19.38
2022-07-30T19:12:17.179Z,19.26
2022-07-30T19:14:57.901Z,19.23
2022-07-30T19:17:47.166Z,19.22
2022-07-30T19:20:27.584Z,19.26
2022-07-30T19:23:20.178Z,19.31
2022-07-30T19:26:00.543Z,19.42
2022-07-30T19:28:50.210Z,19.26
2022-07-30T19:31:30.573Z,19.17
2022-07-30T19:34:20.192Z,19.04
2022-07-30T19:37:14.178Z,18.91
2022-07-30T19:40:14.180Z,18.91
2022-07-30T19:42:55.780Z,18.92
2022-07-30T19:45:48.234Z,18.90
2022-07-30T19:48:31.519Z,18.86
2022-07-30T19:51:21.294Z,18.89
2022-07-30T19:54:05.595Z,19.03
2022-07-30T19:56:55.177Z,19.05
2022-07-30T19:59:59.603Z,19.04
2022-07-30T20:02:53.257Z,18.92
2022-07-30T20:05:54.817Z,18.90
2022-07-30T20:08:44.961Z,18.91
2022-07-30T20:11:36.266Z,18.84
2022-07-30T20:14:26.234Z,18.83
2022-07-30T20:17:16.193Z,18.88
2022-07-30T20:20:08.211Z,19.15
2022-07-30T20:22:48.718Z,19.03
2022-07-30T20:25:38.221Z,18.99
2022-07-30T20:28:32.224Z,18.92
2022-07-30T20:31:13.301Z,18.89
2022-07-30T20:34:03.219Z,18.76
2022-07-30T20:36:44.343Z,18.80
2022-07-30T20:39:35.232Z,18.66
2022-07-30T20:42:15.835Z,18.86
2022-07-30T20:45:06.229Z,18.90
2022-07-30T20:47:59.217Z,18.80
2022-07-30T20:50:51.240Z,18.82
2022-07-30T20:53:33.415Z,18.89
2022-07-30T20:56:28.244Z,18.84
2022-07-30T20:59:23.736Z,18.83
2022-07-30T21:02:15.271Z,18.83
2022-07-30T21:05:05.232Z,18.72
2022-07-30T21:07:56.232Z,18.70
2022-07-30T21:10:38.471Z,18.66
2022-07-30T21:13:28.254Z,18.65
2022-07-30T21:16:22.242Z,18.51
2022-07-30T21:19:12.229Z,18.53
2022-07-30T21:21:54.324Z,18.50
2022-07-30T21:24:44.245Z,18.41
2022-07-30T21:27:39.256Z,18.52
2022-07-30T21:30:30.285Z,18.47
2022-07-30T21:33:20.254Z,18.40
2022-07-30T21:36:10.312Z,18.32
2022-07-30T21:39:04.252Z,18.39
2022-07-30T21:41:48.065Z,18.31
2022-07-30T21:44:41.253Z,18.27
2022-07-30T21:47:25.109Z,18.45
2022-07-30T21:50:19.301Z,18.40
2022-07-30T21:53:04.104Z,18.32
2022-07-30T21:55:57.229Z,18.37
2022-07-30T21:58:50.270Z,18.32
2022-07-30T22:01:38.010Z,18.21
2022-07-30T22:07:32.803Z,18.08
2022-07-30T22:10:25.253Z,18.08
2022-07-30T22:13:08.954Z,18.08
2022-07-30T22:16:03.262Z,18.03
2022-07-30T22:18:46.813Z,17.97
2022-07-30T22:24:40.934Z,18.22
2022-07-30T22:27:39.456Z,18.39
2022-07-30T22:30:23.842Z,18.27
2022-07-30T22:33:23.259Z,18.30
2022-07-30T22:36:24.621Z,18.14
2022-07-30T22:39:21.291Z,17.99
2022-07-30T22:42:15.291Z,18.00
2022-07-30T22:44:59.098Z,17.92
2022-07-30T22:47:54.362Z,17.97
2022-07-30T22:50:51.738Z,18.08
2022-07-30T22:54:03.612Z,18.09
2022-07-30T22:56:48.280Z,18.07
2022-07-30T22:59:58.157Z,18.17
2022-07-30T23:02:44.276Z,18.26
2022-07-30T23:05:40.012Z,18.03
2022-07-30T23:08:37.315Z,18.00
2022-07-30T23:11:21.130Z,17.99
2022-07-30T23:14:15.288Z,18.03
2022-07-30T23:17:08.295Z,18.14
2022-07-30T23:19:52.090Z,17.94
2022-07-30T23:22:45.289Z,17.84
2022-07-30T23:25:38.473Z,17.90
2022-07-30T23:28:31.285Z,17.84
2022-07-30T23:31:25.184Z,17.72
2022-07-30T23:34:06.628Z,17.70
2022-07-30T23:36:56.293Z,17.77
2022-07-30T23:39:53.261Z,18.02
2022-07-30T23:42:43.301Z,17.98
2022-07-30T23:45:24.333Z,17.96
2022-07-30T23:48:15.495Z,17.92
2022-07-30T23:51:05.282Z,17.76
2022-07-30T23:53:45.670Z,17.71
2022-07-30T23:56:35.303Z,17.94
2022-07-30T23:59:40.715Z,17.82
